sensor_id;sensor_type;location;lat;lon;timestamp;pressure;altitude;pressure_sealevel;temperature;humidity
77975;BME280;67164;51.202;0.278;2023-06-10T00:00:48;100990.34;;;24.05;42.78
77975;BME280;67164;51.202;0.278;2023-06-10T00:03:13;100990.84;;;24.07;42.78
77975;BME280;67164;51.202;0.278;2023-06-10T00:05:38;100989.82;;;24.31;42.75
77975;BME280;67164;51.202;0.278;2023-06-10T00:08:05;100988.06;;;23.99;42.86
77975;BME280;67164;51.202;0.278;2023-06-10T00:10:30;100986.73;;;24.02;42.80
77975;BME280;67164;51.202;0.278;2023-06-10T00:12:55;100983.39;;;24.01;42.79
77975;BME280;67164;51.202;0.278;2023-06-10T00:15:21;100981.35;;;24.03;42.77
77975;BME280;67164;51.202;0.278;2023-06-10T00:17:47;100982.48;;;24.02;42.78
77975;BME280;67164;51.202;0.278;2023-06-10T00:20:13;100981.59;;;24.01;42.78
77975;BME280;67164;51.202;0.278;2023-06-10T00:22:38;100978.48;;;23.99;42.79
77975;BME280;67164;51.202;0.278;2023-06-10T00:25:05;100977.26;;;23.99;42.79
77975;BME280;67164;51.202;0.278;2023-06-10T00:27:29;100976.54;;;24.23;42.78
77975;BME280;67164;51.202;0.278;2023-06-10T00:29:54;100973.05;;;24.00;42.80
77975;BME280;67164;51.202;0.278;2023-06-10T00:32:20;100971.06;;;23.99;42.79
77975;BME280;67164;51.202;0.278;2023-06-10T00:34:45;100968.85;;;23.99;42.77
77975;BME280;67164;51.202;0.278;2023-06-10T00:37:11;100965.01;;;23.97;42.76
77975;BME280;67164;51.202;0.278;2023-06-10T00:39:37;100963.23;;;23.96;42.74
77975;BME280;67164;51.202;0.278;2023-06-10T00:42:02;100961.08;;;23.96;42.75
77975;BME280;67164;51.202;0.278;2023-06-10T00:44:28;100960.69;;;23.95;42.75
77975;BME280;67164;51.202;0.278;2023-06-10T00:46:53;100960.56;;;23.94;42.79
77975;BME280;67164;51.202;0.278;2023-06-10T00:49:19;100962.27;;;24.18;42.77
77975;BME280;67164;51.202;0.278;2023-06-10T00:51:44;100960.71;;;23.93;42.75
77975;BME280;67164;51.202;0.278;2023-06-10T00:54:10;100963.36;;;23.96;42.76
77975;BME280;67164;51.202;0.278;2023-06-10T00:56:35;100961.51;;;24.21;42.74
77975;BME280;67164;51.202;0.278;2023-06-10T00:59:01;100961.13;;;23.92;42.78
77975;BME280;67164;51.202;0.278;2023-06-10T01:01:28;100962.10;;;23.90;42.76
77975;BME280;67164;51.202;0.278;2023-06-10T01:03:52;100959.49;;;23.92;42.72
77975;BME280;67164;51.202;0.278;2023-06-10T01:06:25;100963.22;;;23.92;42.73
77975;BME280;67164;51.202;0.278;2023-06-10T01:08:53;100965.80;;;24.18;42.71
77975;BME280;67164;51.202;0.278;2023-06-10T01:11:16;100965.78;;;23.94;42.67
77975;BME280;67164;51.202;0.278;2023-06-10T01:13:36;100967.18;;;24.17;42.67
77975;BME280;67164;51.202;0.278;2023-06-10T01:16:00;100964.28;;;23.93;42.66
77975;BME280;67164;51.202;0.278;2023-06-10T01:18:30;100958.58;;;23.94;42.65
77975;BME280;67164;51.202;0.278;2023-06-10T01:20:50;100956.50;;;24.14;42.69
77975;BME280;67164;51.202;0.278;2023-06-10T01:23:16;100957.68;;;23.87;42.72
77975;BME280;67164;51.202;0.278;2023-06-10T01:25:46;100956.65;;;23.87;42.70
77975;BME280;67164;51.202;0.278;2023-06-10T01:28:11;100955.61;;;23.85;42.73
77975;BME280;67164;51.202;0.278;2023-06-10T01:30:39;100953.51;;;23.82;42.77
77975;BME280;67164;51.202;0.278;2023-06-10T01:32:59;100953.19;;;23.81;42.79
77975;BME280;67164;51.202;0.278;2023-06-10T01:35:25;100951.88;;;23.85;42.72
77975;BME280;67164;51.202;0.278;2023-06-10T01:37:50;100949.68;;;23.86;42.71
77975;BME280;67164;51.202;0.278;2023-06-10T01:40:16;100944.84;;;23.79;42.78
77975;BME280;67164;51.202;0.278;2023-06-10T01:42:40;100945.94;;;23.80;42.77
77975;BME280;67164;51.202;0.278;2023-06-10T01:45:07;100948.71;;;24.05;42.76
77975;BME280;67164;51.202;0.278;2023-06-10T01:47:32;100945.37;;;23.57;42.74
77975;BME280;67164;51.202;0.278;2023-06-10T01:49:57;100941.87;;;23.83;42.71
77975;BME280;67164;51.202;0.278;2023-06-10T01:52:23;100938.24;;;23.79;42.75
77975;BME280;67164;51.202;0.278;2023-06-10T01:54:49;100941.87;;;24.22;42.81
77975;BME280;67164;51.202;0.278;2023-06-10T01:57:14;100939.52;;;23.91;42.90
77975;BME280;67164;51.202;0.278;2023-06-10T01:59:39;100944.63;;;23.72;42.81
77975;BME280;67164;51.202;0.278;2023-06-10T02:02:06;100942.67;;;23.75;42.78
77975;BME280;67164;51.202;0.278;2023-06-10T02:04:30;100942.55;;;23.98;42.76
77975;BME280;67164;51.202;0.278;2023-06-10T02:06:56;100943.62;;;23.72;42.80
77975;BME280;67164;51.202;0.278;2023-06-10T02:09:22;100941.73;;;23.70;42.82
77975;BME280;67164;51.202;0.278;2023-06-10T02:11:48;100940.61;;;23.71;42.82
77975;BME280;67164;51.202;0.278;2023-06-10T02:14:13;100937.51;;;23.90;42.85
77975;BME280;67164;51.202;0.278;2023-06-10T02:16:39;100938.84;;;23.65;42.85
77975;BME280;67164;51.202;0.278;2023-06-10T02:19:05;100941.60;;;23.63;42.91
77975;BME280;67164;51.202;0.278;2023-06-10T02:21:30;100944.27;;;23.63;42.89
77975;BME280;67164;51.202;0.278;2023-06-10T02:23:56;100944.46;;;23.88;42.86
77975;BME280;67164;51.202;0.278;2023-06-10T02:26:22;100945.58;;;23.64;42.86
77975;BME280;67164;51.202;0.278;2023-06-10T02:28:47;100941.18;;;23.84;42.86
77975;BME280;67164;51.202;0.278;2023-06-10T02:31:13;100936.78;;;23.58;42.91
77975;BME280;67164;51.202;0.278;2023-06-10T02:33:38;100935.67;;;23.55;42.94
77975;BME280;67164;51.202;0.278;2023-06-10T02:36:04;100938.61;;;23.59;42.87
77975;BME280;67164;51.202;0.278;2023-06-10T02:38:29;100936.78;;;23.59;42.86
77975;BME280;67164;51.202;0.278;2023-06-10T02:40:55;100938.39;;;23.60;42.83
77975;BME280;67164;51.202;0.278;2023-06-10T02:43:21;100937.36;;;23.55;42.87
77975;BME280;67164;51.202;0.278;2023-06-10T02:45:47;100937.75;;;23.46;43.02
77975;BME280;67164;51.202;0.278;2023-06-10T02:48:13;100938.32;;;23.51;42.93
77975;BME280;67164;51.202;0.278;2023-06-10T02:50:39;100940.27;;;23.77;42.91
77975;BME280;67164;51.202;0.278;2023-06-10T02:53:05;100940.16;;;23.52;42.92
77975;BME280;67164;51.202;0.278;2023-06-10T02:55:30;100939.75;;;23.52;42.90
77975;BME280;67164;51.202;0.278;2023-06-10T02:57:56;100941.17;;;23.51;42.90
77975;BME280;67164;51.202;0.278;2023-06-10T03:00:22;100942.31;;;23.50;42.90
77975;BME280;67164;51.202;0.278;2023-06-10T03:02:47;100941.40;;;23.49;42.93
77975;BME280;67164;51.202;0.278;2023-06-10T03:05:13;100939.75;;;23.44;42.97
77975;BME280;67164;51.202;0.278;2023-06-10T03:07:39;100943.23;;;23.49;42.93
77975;BME280;67164;51.202;0.278;2023-06-10T03:10:06;100944.09;;;23.48;42.92
77975;BME280;67164;51.202;0.278;2023-06-10T03:12:30;100944.31;;;23.69;42.94
77975;BME280;67164;51.202;0.278;2023-06-10T03:14:56;100946.43;;;23.70;42.91
77975;BME280;67164;51.202;0.278;2023-06-10T03:17:21;100947.20;;;23.45;42.90
77975;BME280;67164;51.202;0.278;2023-06-10T03:19:47;100945.56;;;23.68;42.90
77975;BME280;67164;51.202;0.278;2023-06-10T03:22:13;100943.10;;;23.41;42.94
77975;BME280;67164;51.202;0.278;2023-06-10T03:24:38;100944.18;;;23.39;42.96
77975;BME280;67164;51.202;0.278;2023-06-10T03:27:04;100946.56;;;23.41;42.93
77975;BME280;67164;51.202;0.278;2023-06-10T03:29:29;100944.75;;;23.42;42.90
77975;BME280;67164;51.202;0.278;2023-06-10T03:31:55;100943.77;;;23.37;42.96
77975;BME280;67164;51.202;0.278;2023-06-10T03:34:20;100946.76;;;23.62;42.97
77975;BME280;67164;51.202;0.278;2023-06-10T03:36:46;100945.41;;;23.85;42.97
77975;BME280;67164;51.202;0.278;2023-06-10T03:39:11;100945.82;;;23.37;42.99
77975;BME280;67164;51.202;0.278;2023-06-10T03:41:37;100939.71;;;23.57;42.99
77975;BME280;67164;51.202;0.278;2023-06-10T03:44:03;100938.35;;;23.43;42.87
77975;BME280;67164;51.202;0.278;2023-06-10T03:46:28;100935.49;;;23.38;42.92
77975;BME280;67164;51.202;0.278;2023-06-10T03:48:54;100939.45;;;23.39;42.89
77975;BME280;67164;51.202;0.278;2023-06-10T03:51:19;100938.39;;;23.36;42.96
77975;BME280;67164;51.202;0.278;2023-06-10T03:53:45;100936.08;;;23.28;43.06
77975;BME280;67164;51.202;0.278;2023-06-10T03:56:11;100939.66;;;23.34;42.98
77975;BME280;67164;51.202;0.278;2023-06-10T03:58:36;100936.04;;;23.58;42.98
77975;BME280;67164;51.202;0.278;2023-06-10T04:01:02;100940.44;;;23.36;42.96
77975;BME280;67164;51.202;0.278;2023-06-10T04:03:28;100942.56;;;23.26;43.13
77975;BME280;67164;51.202;0.278;2023-06-10T04:05:54;100942.24;;;23.56;43.03
77975;BME280;67164;51.202;0.278;2023-06-10T04:08:20;100943.44;;;23.25;43.13
77975;BME280;67164;51.202;0.278;2023-06-10T04:10:45;100945.29;;;23.86;42.92
77975;BME280;67164;51.202;0.278;2023-06-10T04:13:11;100944.46;;;23.82;42.97
77975;BME280;67164;51.202;0.278;2023-06-10T04:15:37;100947.36;;;23.34;42.98
77975;BME280;67164;51.202;0.278;2023-06-10T04:18:03;100947.33;;;23.54;43.03
77975;BME280;67164;51.202;0.278;2023-06-10T04:20:28;100944.30;;;23.55;43.04
77975;BME280;67164;51.202;0.278;2023-06-10T04:22:54;100947.23;;;23.29;43.09
77975;BME280;67164;51.202;0.278;2023-06-10T04:25:19;100950.24;;;23.57;43.02
77975;BME280;67164;51.202;0.278;2023-06-10T04:27:45;100951.76;;;23.46;43.17
77975;BME280;67164;51.202;0.278;2023-06-10T04:30:12;100955.46;;;23.28;43.08
77975;BME280;67164;51.202;0.278;2023-06-10T04:32:36;100949.56;;;23.14;43.25
77975;BME280;67164;51.202;0.278;2023-06-10T04:35:02;100946.94;;;23.21;43.18
77975;BME280;67164;51.202;0.278;2023-06-10T04:37:27;100947.70;;;23.28;43.06
77975;BME280;67164;51.202;0.278;2023-06-10T04:39:53;100949.02;;;23.26;43.11
77975;BME280;67164;51.202;0.278;2023-06-10T04:42:19;100947.55;;;23.31;43.00
77975;BME280;67164;51.202;0.278;2023-06-10T04:44:44;100947.96;;;23.75;43.09
77975;BME280;67164;51.202;0.278;2023-06-10T04:47:10;100955.97;;;23.71;43.16
77975;BME280;67164;51.202;0.278;2023-06-10T04:49:35;100946.18;;;23.50;43.06
77975;BME280;67164;51.202;0.278;2023-06-10T04:52:02;100944.17;;;23.74;43.04
77975;BME280;67164;51.202;0.278;2023-06-10T04:54:26;100944.92;;;23.50;43.01
77975;BME280;67164;51.202;0.278;2023-06-10T04:56:52;100942.51;;;23.25;43.03
77975;BME280;67164;51.202;0.278;2023-06-10T04:59:18;100940.83;;;23.26;43.01
77975;BME280;67164;51.202;0.278;2023-06-10T05:01:44;100944.27;;;23.72;43.04
77975;BME280;67164;51.202;0.278;2023-06-10T05:04:09;100946.17;;;23.45;43.08
77975;BME280;67164;51.202;0.278;2023-06-10T05:06:35;100940.60;;;23.25;43.08
77975;BME280;67164;51.202;0.278;2023-06-10T05:09:01;100935.59;;;23.53;42.99
77975;BME280;67164;51.202;0.278;2023-06-10T05:11:26;100934.46;;;23.25;43.00
77975;BME280;67164;51.202;0.278;2023-06-10T05:13:52;100939.14;;;23.23;43.03
77975;BME280;67164;51.202;0.278;2023-06-10T05:16:18;100934.88;;;23.51;43.00
77975;BME280;67164;51.202;0.278;2023-06-10T05:18:44;100935.01;;;23.26;43.04
77975;BME280;67164;51.202;0.278;2023-06-10T05:21:10;100933.95;;;23.71;43.10
77975;BME280;67164;51.202;0.278;2023-06-10T05:23:35;100933.40;;;23.39;43.15
77975;BME280;67164;51.202;0.278;2023-06-10T05:26:00;100932.43;;;23.23;43.07
77975;BME280;67164;51.202;0.278;2023-06-10T05:28:26;100928.64;;;23.22;43.06
77975;BME280;67164;51.202;0.278;2023-06-10T05:30:52;100926.93;;;23.45;43.08
77975;BME280;67164;51.202;0.278;2023-06-10T05:33:17;100930.52;;;23.24;43.06
77975;BME280;67164;51.202;0.278;2023-06-10T05:35:42;100930.59;;;23.72;43.01
77975;BME280;67164;51.202;0.278;2023-06-10T05:38:10;100934.79;;;23.26;43.01
77975;BME280;67164;51.202;0.278;2023-06-10T05:40:33;100934.99;;;23.50;42.92
77975;BME280;67164;51.202;0.278;2023-06-10T05:42:59;100938.26;;;23.72;43.07
77975;BME280;67164;51.202;0.278;2023-06-10T05:45:24;100938.96;;;23.47;43.04
77975;BME280;67164;51.202;0.278;2023-06-10T05:47:50;100940.43;;;23.22;43.06
77975;BME280;67164;51.202;0.278;2023-06-10T05:50:16;100937.73;;;23.43;43.01
77975;BME280;67164;51.202;0.278;2023-06-10T05:52:42;100940.89;;;23.42;42.92
77975;BME280;67164;51.202;0.278;2023-06-10T05:55:09;100942.95;;;23.22;42.98
77975;BME280;67164;51.202;0.278;2023-06-10T05:57:33;100948.56;;;23.18;42.88
77975;BME280;67164;51.202;0.278;2023-06-10T05:59:59;100949.80;;;23.70;42.82
77975;BME280;67164;51.202;0.278;2023-06-10T06:02:25;100949.40;;;23.42;42.85
77975;BME280;67164;51.202;0.278;2023-06-10T06:04:50;100951.04;;;23.13;42.89
77975;BME280;67164;51.202;0.278;2023-06-10T06:07:16;100954.22;;;23.19;42.86
77975;BME280;67164;51.202;0.278;2023-06-10T06:09:42;100959.83;;;23.68;42.83
77975;BME280;67164;51.202;0.278;2023-06-10T06:12:08;100954.76;;;22.82;43.49
77975;BME280;67164;51.202;0.278;2023-06-10T06:14:33;100958.88;;;23.43;43.21
77975;BME280;67164;51.202;0.278;2023-06-10T06:16:58;100955.69;;;23.44;43.32
77975;BME280;67164;51.202;0.278;2023-06-10T06:19:24;100951.19;;;23.71;43.06
77975;BME280;67164;51.202;0.278;2023-06-10T06:21:49;100952.87;;;23.82;43.33
77975;BME280;67164;51.202;0.278;2023-06-10T06:24:16;100952.69;;;23.51;43.17
77975;BME280;67164;51.202;0.278;2023-06-10T06:26:45;100952.48;;;23.69;43.34
77975;BME280;67164;51.202;0.278;2023-06-10T06:29:06;100955.15;;;23.94;43.14
77975;BME280;67164;51.202;0.278;2023-06-10T06:31:31;100957.95;;;23.91;43.29
77975;BME280;67164;51.202;0.278;2023-06-10T06:33:57;100956.49;;;23.52;43.52
77975;BME280;67164;51.202;0.278;2023-06-10T06:36:23;100965.36;;;23.26;44.00
77975;BME280;67164;51.202;0.278;2023-06-10T06:38:49;100967.20;;;23.78;43.44
77975;BME280;67164;51.202;0.278;2023-06-10T06:41:14;100969.16;;;23.78;43.86
77975;BME280;67164;51.202;0.278;2023-06-10T06:43:40;100971.31;;;23.24;44.52
77975;BME280;67164;51.202;0.278;2023-06-10T06:46:06;100969.64;;;22.93;44.97
77975;BME280;67164;51.202;0.278;2023-06-10T06:48:31;100972.33;;;22.88;45.10
77975;BME280;67164;51.202;0.278;2023-06-10T06:50:57;100977.11;;;22.92;45.05
77975;BME280;67164;51.202;0.278;2023-06-10T06:53:23;100971.97;;;23.19;44.90
77975;BME280;67164;51.202;0.278;2023-06-10T06:55:48;100972.83;;;22.49;46.01
77975;BME280;67164;51.202;0.278;2023-06-10T06:58:14;100976.28;;;22.41;46.66
77975;BME280;67164;51.202;0.278;2023-06-10T07:00:39;100976.90;;;22.09;46.88
77975;BME280;67164;51.202;0.278;2023-06-10T07:03:05;100978.54;;;22.41;47.18
77975;BME280;67164;51.202;0.278;2023-06-10T07:05:31;100975.95;;;22.37;47.74
77975;BME280;67164;51.202;0.278;2023-06-10T07:07:57;100976.17;;;22.02;48.05
77975;BME280;67164;51.202;0.278;2023-06-10T07:10:23;100974.87;;;22.28;47.46
77975;BME280;67164;51.202;0.278;2023-06-10T07:12:48;100975.84;;;22.01;47.44
77975;BME280;67164;51.202;0.278;2023-06-10T07:15:14;100973.11;;;22.10;47.26
77975;BME280;67164;51.202;0.278;2023-06-10T07:17:40;100973.30;;;22.53;46.98
77975;BME280;67164;51.202;0.278;2023-06-10T07:20:07;100972.48;;;22.15;47.15
77975;BME280;67164;51.202;0.278;2023-06-10T07:22:32;100970.93;;;22.62;47.14
77975;BME280;67164;51.202;0.278;2023-06-10T07:24:57;100972.76;;;22.44;47.08
77975;BME280;67164;51.202;0.278;2023-06-10T07:27:23;100973.63;;;22.37;47.16
77975;BME280;67164;51.202;0.278;2023-06-10T07:29:48;100970.25;;;22.45;47.04
77975;BME280;67164;51.202;0.278;2023-06-10T07:32:14;100972.78;;;22.27;46.98
77975;BME280;67164;51.202;0.278;2023-06-10T07:34:39;100978.08;;;22.97;46.61
77975;BME280;67164;51.202;0.278;2023-06-10T07:37:06;100982.95;;;22.63;46.75
77975;BME280;67164;51.202;0.278;2023-06-10T07:39:30;100985.33;;;22.68;46.69
77975;BME280;67164;51.202;0.278;2023-06-10T07:41:56;100982.99;;;22.92;46.36
77975;BME280;67164;51.202;0.278;2023-06-10T07:44:22;100979.67;;;23.37;45.20
77975;BME280;67164;51.202;0.278;2023-06-10T07:46:48;100985.36;;;22.66;46.73
77975;BME280;67164;51.202;0.278;2023-06-10T07:49:14;100982.30;;;22.96;46.19
77975;BME280;67164;51.202;0.278;2023-06-10T07:51:39;100988.79;;;22.48;47.60
77975;BME280;67164;51.202;0.278;2023-06-10T07:54:05;100985.04;;;22.66;47.24
77975;BME280;67164;51.202;0.278;2023-06-10T07:56:31;100982.73;;;22.80;46.81
77975;BME280;67164;51.202;0.278;2023-06-10T07:58:57;100991.56;;;22.57;47.35
77975;BME280;67164;51.202;0.278;2023-06-10T08:01:22;100986.11;;;22.78;47.26
77975;BME280;67164;51.202;0.278;2023-06-10T08:03:47;100983.92;;;22.95;47.93
77975;BME280;67164;51.202;0.278;2023-06-10T08:06:13;100979.72;;;22.09;49.09
77975;BME280;67164;51.202;0.278;2023-06-10T08:08:39;100983.79;;;22.34;49.78
77975;BME280;67164;51.202;0.278;2023-06-10T08:11:05;100983.70;;;22.00;49.87
77975;BME280;67164;51.202;0.278;2023-06-10T08:13:30;100987.92;;;22.04;49.64
77975;BME280;67164;51.202;0.278;2023-06-10T08:15:55;100985.80;;;22.19;50.43
77975;BME280;67164;51.202;0.278;2023-06-10T08:18:21;100990.95;;;22.06;50.32
77975;BME280;67164;51.202;0.278;2023-06-10T08:20:47;100995.48;;;22.13;50.03
77975;BME280;67164;51.202;0.278;2023-06-10T08:23:13;100991.75;;;22.07;50.39
77975;BME280;67164;51.202;0.278;2023-06-10T08:25:38;100996.96;;;22.13;50.19
77975;BME280;67164;51.202;0.278;2023-06-10T08:28:03;100996.82;;;22.42;50.01
77975;BME280;67164;51.202;0.278;2023-06-10T08:30:28;100997.27;;;22.28;50.23
77975;BME280;67164;51.202;0.278;2023-06-10T08:32:54;100996.95;;;22.28;50.49
77975;BME280;67164;51.202;0.278;2023-06-10T08:35:19;101000.70;;;22.35;50.38
77975;BME280;67164;51.202;0.278;2023-06-10T08:37:45;100997.19;;;22.38;50.44
77975;BME280;67164;51.202;0.278;2023-06-10T08:40:11;100998.58;;;22.61;50.01
77975;BME280;67164;51.202;0.278;2023-06-10T08:42:40;100996.99;;;22.29;50.37
77975;BME280;67164;51.202;0.278;2023-06-10T08:45:03;101001.49;;;22.57;50.48
77975;BME280;67164;51.202;0.278;2023-06-10T08:47:29;101002.60;;;22.58;50.38
77975;BME280;67164;51.202;0.278;2023-06-10T08:49:53;101004.17;;;22.70;50.17
77975;BME280;67164;51.202;0.278;2023-06-10T08:52:18;101002.52;;;22.49;50.33
77975;BME280;67164;51.202;0.278;2023-06-10T08:54:46;101000.95;;;22.82;50.46
77975;BME280;67164;51.202;0.278;2023-06-10T08:57:09;100999.94;;;22.81;50.36
77975;BME280;67164;51.202;0.278;2023-06-10T08:59:34;100998.74;;;22.84;50.36
77975;BME280;67164;51.202;0.278;2023-06-10T09:02:00;100998.79;;;22.81;50.67
77975;BME280;67164;51.202;0.278;2023-06-10T09:04:25;100999.62;;;22.69;50.51
77975;BME280;67164;51.202;0.278;2023-06-10T09:06:51;101003.02;;;22.89;50.99
77975;BME280;67164;51.202;0.278;2023-06-10T09:09:16;100996.60;;;22.82;50.48
77975;BME280;67164;51.202;0.278;2023-06-10T09:11:42;100999.44;;;22.83;50.64
77975;BME280;67164;51.202;0.278;2023-06-10T09:14:07;100994.70;;;22.90;50.73
77975;BME280;67164;51.202;0.278;2023-06-10T09:16:32;101000.18;;;23.09;50.83
77975;BME280;67164;51.202;0.278;2023-06-10T09:18:57;100996.13;;;23.20;50.66
77975;BME280;67164;51.202;0.278;2023-06-10T09:21:23;100993.84;;;23.27;50.60
77975;BME280;67164;51.202;0.278;2023-06-10T09:23:48;100994.23;;;22.82;50.75
77975;BME280;67164;51.202;0.278;2023-06-10T09:26:13;100993.90;;;22.99;50.82
77975;BME280;67164;51.202;0.278;2023-06-10T09:28:39;100995.52;;;22.95;50.31
77975;BME280;67164;51.202;0.278;2023-06-10T09:31:06;100994.70;;;22.88;50.74
77975;BME280;67164;51.202;0.278;2023-06-10T09:33:31;100995.80;;;22.97;50.74
77975;BME280;67164;51.202;0.278;2023-06-10T09:35:56;100997.20;;;23.05;50.57
77975;BME280;67164;51.202;0.278;2023-06-10T09:38:22;100992.83;;;23.27;50.69
77975;BME280;67164;51.202;0.278;2023-06-10T09:40:53;100992.71;;;23.20;50.36
77975;BME280;67164;51.202;0.278;2023-06-10T09:43:12;101000.15;;;23.14;50.46
77975;BME280;67164;51.202;0.278;2023-06-10T09:45:38;100996.36;;;23.22;50.48
77975;BME280;67164;51.202;0.278;2023-06-10T09:48:03;100997.14;;;23.16;51.18
77975;BME280;67164;51.202;0.278;2023-06-10T09:50:32;100995.78;;;23.80;50.50
77975;BME280;67164;51.202;0.278;2023-06-10T09:52:53;101001.83;;;23.21;50.83
77975;BME280;67164;51.202;0.278;2023-06-10T09:55:19;100992.83;;;23.33;50.28
77975;BME280;67164;51.202;0.278;2023-06-10T09:57:45;100993.48;;;23.31;51.10
77975;BME280;67164;51.202;0.278;2023-06-10T10:00:11;100996.60;;;23.48;50.49
77975;BME280;67164;51.202;0.278;2023-06-10T10:02:45;100996.34;;;23.43;49.72
77975;BME280;67164;51.202;0.278;2023-06-10T10:05:03;101001.20;;;23.51;49.09
77975;BME280;67164;51.202;0.278;2023-06-10T10:07:27;101000.70;;;23.30;49.22
77975;BME280;67164;51.202;0.278;2023-06-10T10:09:52;100999.49;;;23.49;49.28
77975;BME280;67164;51.202;0.278;2023-06-10T10:12:18;100995.13;;;23.32;47.72
77975;BME280;67164;51.202;0.278;2023-06-10T10:14:46;101001.18;;;23.63;47.63
77975;BME280;67164;51.202;0.278;2023-06-10T10:17:11;101001.84;;;23.44;48.27
77975;BME280;67164;51.202;0.278;2023-06-10T10:19:40;101001.49;;;23.74;48.71
77975;BME280;67164;51.202;0.278;2023-06-10T10:22:04;100999.31;;;23.71;49.30
77975;BME280;67164;51.202;0.278;2023-06-10T10:24:30;100997.53;;;23.75;47.99
77975;BME280;67164;51.202;0.278;2023-06-10T10:26:54;101002.06;;;23.91;48.23
77975;BME280;67164;51.202;0.278;2023-06-10T10:29:23;101003.86;;;23.79;47.32
77975;BME280;67164;51.202;0.278;2023-06-10T10:31:43;100996.99;;;23.74;46.60
77975;BME280;67164;51.202;0.278;2023-06-10T10:34:13;100995.75;;;23.87;46.17
77975;BME280;67164;51.202;0.278;2023-06-10T10:36:35;100992.14;;;23.76;46.41
77975;BME280;67164;51.202;0.278;2023-06-10T10:39:01;100991.79;;;23.99;46.38
77975;BME280;67164;51.202;0.278;2023-06-10T10:41:26;100991.65;;;23.75;46.29
77975;BME280;67164;51.202;0.278;2023-06-10T10:43:52;100987.59;;;23.88;46.04
77975;BME280;67164;51.202;0.278;2023-06-10T10:46:17;100991.07;;;23.91;45.63
77975;BME280;67164;51.202;0.278;2023-06-10T10:48:43;100989.85;;;23.89;45.72
77975;BME280;67164;51.202;0.278;2023-06-10T10:51:08;100989.47;;;23.78;45.53
77975;BME280;67164;51.202;0.278;2023-06-10T10:53:33;100990.05;;;23.73;45.02
77975;BME280;67164;51.202;0.278;2023-06-10T10:55:59;100986.37;;;23.97;45.21
77975;BME280;67164;51.202;0.278;2023-06-10T10:58:25;100986.40;;;24.05;44.90
77975;BME280;67164;51.202;0.278;2023-06-10T11:00:50;100986.55;;;23.77;45.02
77975;BME280;67164;51.202;0.278;2023-06-10T11:03:16;100982.43;;;24.09;45.15
77975;BME280;67164;51.202;0.278;2023-06-10T11:05:43;100982.61;;;24.13;44.81
77975;BME280;67164;51.202;0.278;2023-06-10T11:08:08;100980.61;;;23.89;44.97
77975;BME280;67164;51.202;0.278;2023-06-10T11:10:33;100979.99;;;24.24;44.84
77975;BME280;67164;51.202;0.278;2023-06-10T11:12:58;100982.74;;;24.44;44.89
77975;BME280;67164;51.202;0.278;2023-06-10T11:15:24;100977.76;;;24.02;44.49
77975;BME280;67164;51.202;0.278;2023-06-10T11:18:07;100981.53;;;24.04;44.36
77975;BME280;67164;51.202;0.278;2023-06-10T11:25:13;100977.29;;;24.00;44.39
77975;BME280;67164;51.202;0.278;2023-06-10T11:27:37;100975.81;;;24.08;43.96
77975;BME280;67164;51.202;0.278;2023-06-10T11:29:58;100977.51;;;24.13;44.00
77975;BME280;67164;51.202;0.278;2023-06-10T11:32:22;100973.58;;;24.13;43.91
77975;BME280;67164;51.202;0.278;2023-06-10T11:34:52;100969.53;;;24.45;43.82
77975;BME280;67164;51.202;0.278;2023-06-10T11:37:13;100976.88;;;24.49;43.44
77975;BME280;67164;51.202;0.278;2023-06-10T11:39:39;100975.59;;;24.32;43.58
77975;BME280;67164;51.202;0.278;2023-06-10T11:42:05;100969.23;;;24.13;42.99
77975;BME280;67164;51.202;0.278;2023-06-10T11:44:30;100968.51;;;24.33;42.94
77975;BME280;67164;51.202;0.278;2023-06-10T11:46:56;100970.70;;;24.40;43.08
77975;BME280;67164;51.202;0.278;2023-06-10T11:49:21;100967.32;;;24.31;41.65
77975;BME280;67164;51.202;0.278;2023-06-10T11:51:46;100967.29;;;24.25;40.79
77975;BME280;67164;51.202;0.278;2023-06-10T11:54:12;100964.40;;;24.07;40.38
77975;BME280;67164;51.202;0.278;2023-06-10T11:56:37;100967.23;;;24.07;40.14
77975;BME280;67164;51.202;0.278;2023-06-10T11:59:03;100956.58;;;24.45;39.86
77975;BME280;67164;51.202;0.278;2023-06-10T12:01:27;100964.39;;;24.67;39.86
77975;BME280;67164;51.202;0.278;2023-06-10T12:04:00;100960.52;;;24.72;40.12
77975;BME280;67164;51.202;0.278;2023-06-10T12:06:18;100961.08;;;24.42;39.99
77975;BME280;67164;51.202;0.278;2023-06-10T12:08:44;100957.56;;;24.85;39.36
77975;BME280;67164;51.202;0.278;2023-06-10T12:11:09;100956.39;;;24.97;39.33
77975;BME280;67164;51.202;0.278;2023-06-10T12:13:34;100970.21;;;24.67;38.57
77975;BME280;67164;51.202;0.278;2023-06-10T12:16:06;100964.68;;;24.85;37.44
77975;BME280;67164;51.202;0.278;2023-06-10T12:18:25;100950.72;;;25.15;37.50
77975;BME280;67164;51.202;0.278;2023-06-10T12:20:51;100953.09;;;25.52;37.26
77975;BME280;67164;51.202;0.278;2023-06-10T12:23:17;100953.45;;;25.38;37.24
77975;BME280;67164;51.202;0.278;2023-06-10T12:25:49;100949.80;;;24.75;37.54
77975;BME280;67164;51.202;0.278;2023-06-10T12:28:10;100952.12;;;24.67;37.46
77975;BME280;67164;51.202;0.278;2023-06-10T12:30:33;100951.88;;;25.04;36.62
77975;BME280;67164;51.202;0.278;2023-06-10T12:32:58;100952.17;;;24.53;36.32
77975;BME280;67164;51.202;0.278;2023-06-10T12:35:25;100947.14;;;24.91;36.38
77975;BME280;67164;51.202;0.278;2023-06-10T12:37:56;100944.51;;;24.68;36.24
77975;BME280;67164;51.202;0.278;2023-06-10T12:40:15;100952.87;;;25.34;35.99
77975;BME280;67164;51.202;0.278;2023-06-10T12:42:40;100949.26;;;24.82;35.74
77975;BME280;67164;51.202;0.278;2023-06-10T12:45:06;100941.22;;;24.96;35.87